createdAt,value
2017-12-21T00:01:01.894Z,3.86
2017-12-21T00:02:06.541Z,3.85
2017-12-21T00:03:11.177Z,3.86
2017-12-21T00:04:16.266Z,3.84
2017-12-21T00:05:20.968Z,3.75
2017-12-21T00:06:25.628Z,3.79
2017-12-21T00:07:30.266Z,3.81
2017-12-21T00:08:34.988Z,3.86
2017-12-21T00:09:39.715Z,3.87
2017-12-21T00:10:44.854Z,3.77
2017-12-21T00:11:49.512Z,3.76
2017-12-21T00:12:54.190Z,3.77
2017-12-21T00:13:58.931Z,3.75
2017-12-21T00:15:03.757Z,3.74
2017-12-21T00:16:08.511Z,3.76
2017-12-21T00:17:13.448Z,3.79
2017-12-21T00:18:18.086Z,3.76
2017-12-21T00:19:22.700Z,3.72
2017-12-21T00:20:27.368Z,3.74
2017-12-21T00:21:32.017Z,3.65
2017-12-21T00:22:40.914Z,3.64
2017-12-21T00:23:46.155Z,3.59
2017-12-21T00:24:50.833Z,3.59
2017-12-21T00:25:55.669Z,3.57
2017-12-21T00:27:00.311Z,3.58
2017-12-21T00:28:04.950Z,3.53
2017-12-21T00:29:09.432Z,3.53
2017-12-21T00:30:14.220Z,3.57
2017-12-21T00:31:18.772Z,3.58
2017-12-21T00:32:23.302Z,3.56
2017-12-21T00:33:27.910Z,3.54
2017-12-21T00:34:32.549Z,3.52
2017-12-21T00:35:37.188Z,3.58
2017-12-21T00:36:42.280Z,3.52
2017-12-21T00:37:46.871Z,3.51
2017-12-21T00:38:51.455Z,3.49
2017-12-21T00:39:56.099Z,3.49
2017-12-21T00:41:00.700Z,3.51
2017-12-21T00:42:05.292Z,3.50
2017-12-21T00:43:10.246Z,3.54
2017-12-21T00:44:14.862Z,3.54
2017-12-21T00:45:19.458Z,3.55
2017-12-21T00:46:24.039Z,3.51
2017-12-21T00:47:28.605Z,3.44
2017-12-21T00:48:33.162Z,3.42
2017-12-21T00:49:38.329Z,3.41
2017-12-21T00:50:43.022Z,3.45
2017-12-21T00:51:48.210Z,3.45
2017-12-21T00:52:52.816Z,3.44
2017-12-21T00:53:57.373Z,3.39
2017-12-21T00:55:01.959Z,3.38
2017-12-21T00:56:06.903Z,3.35
2017-12-21T00:57:11.489Z,3.37
2017-12-21T00:58:16.108Z,3.37
2017-12-21T00:59:20.722Z,3.36
2017-12-21T01:00:25.355Z,3.36
2017-12-21T01:01:29.948Z,3.41
2017-12-21T01:02:34.990Z,3.45
2017-12-21T01:03:39.655Z,3.44
2017-12-21T01:04:44.277Z,3.42
2017-12-21T01:05:48.877Z,3.40
2017-12-21T01:06:53.475Z,3.42
2017-12-21T01:07:58.083Z,3.39
2017-12-21T01:09:03.362Z,3.39
2017-12-21T01:10:07.903Z,3.37
2017-12-21T01:11:12.449Z,3.42
2017-12-21T01:12:17.993Z,3.45
2017-12-21T01:13:22.528Z,3.42
2017-12-21T01:14:27.130Z,3.45
2017-12-21T01:15:31.985Z,3.45
2017-12-21T01:16:36.397Z,3.42
2017-12-21T01:17:40.895Z,3.40
2017-12-21T01:18:45.462Z,3.41
2017-12-21T01:19:50.056Z,3.46
2017-12-21T01:20:54.701Z,3.41
2017-12-21T01:22:00.004Z,3.40
2017-12-21T01:23:04.607Z,3.39
2017-12-21T01:24:09.195Z,3.38
2017-12-21T01:25:13.781Z,3.45
2017-12-21T01:26:18.351Z,3.54
2017-12-21T01:27:23.008Z,3.53
2017-12-21T01:28:28.003Z,3.53
2017-12-21T01:29:32.736Z,3.50
2017-12-21T01:30:37.417Z,3.52
2017-12-21T01:31:41.958Z,3.60
2017-12-21T01:32:46.471Z,3.68
2017-12-21T01:33:51.192Z,3.74
2017-12-21T01:34:56.099Z,3.80
2017-12-21T01:36:00.792Z,3.73
2017-12-21T01:37:05.435Z,3.63
2017-12-21T01:38:10.029Z,3.61
2017-12-21T01:39:14.642Z,3.61
2017-12-21T01:40:19.229Z,3.57
2017-12-21T01:41:24.216Z,3.60
2017-12-21T01:42:28.824Z,3.60
2017-12-21T01:43:33.460Z,3.62
2017-12-21T01:44:38.032Z,3.61
2017-12-21T01:45:42.742Z,3.66
2017-12-21T01:46:47.447Z,3.70
2017-12-21T01:47:52.561Z,3.67
2017-12-21T01:48:57.136Z,3.71
2017-12-21T01:50:02.419Z,3.76
2017-12-21T01:51:07.077Z,3.79
2017-12-21T01:52:11.711Z,3.75
2017-12-21T01:53:16.286Z,3.70
2017-12-21T01:54:21.197Z,3.68
2017-12-21T01:55:25.738Z,3.67
2017-12-21T01:56:30.399Z,3.68
2017-12-21T01:57:34.967Z,3.64
2017-12-21T01:58:39.801Z,3.69
2017-12-21T01:59:44.410Z,3.67
2017-12-21T02:00:49.753Z,3.67
2017-12-21T02:01:55.004Z,3.71
2017-12-21T02:02:59.619Z,3.73
2017-12-21T02:04:04.182Z,3.77
2017-12-21T02:05:08.775Z,3.74
2017-12-21T02:06:13.390Z,3.72
2017-12-21T02:07:18.289Z,3.76
2017-12-21T02:08:23.702Z,3.78
2017-12-21T02:09:28.289Z,3.78
2017-12-21T02:10:32.920Z,3.76
2017-12-21T02:11:37.599Z,3.81
2017-12-21T02:12:42.212Z,3.86
2017-12-21T02:13:47.178Z,3.84
2017-12-21T02:14:51.756Z,3.80
2017-12-21T02:15:56.320Z,3.72
2017-12-21T02:17:00.910Z,3.70
2017-12-21T02:18:05.448Z,3.76
2017-12-21T02:19:10.064Z,3.79
2017-12-21T02:20:15.047Z,3.76
2017-12-21T02:21:19.623Z,3.75
2017-12-21T02:22:24.198Z,3.81
2017-12-21T02:23:28.819Z,3.85
2017-12-21T02:24:33.416Z,3.86
2017-12-21T02:25:38.027Z,3.87
2017-12-21T02:26:44.226Z,3.91
2017-12-21T02:27:49.075Z,3.94
2017-12-21T02:28:53.691Z,3.89
2017-12-21T02:29:58.359Z,3.89
2017-12-21T02:31:02.959Z,3.84
2017-12-21T02:32:07.569Z,3.83
2017-12-21T02:33:12.613Z,3.84
2017-12-21T02:34:17.141Z,3.88
2017-12-21T02:35:21.666Z,3.86
2017-12-21T02:36:26.231Z,3.79
2017-12-21T02:37:30.841Z,3.75
2017-12-21T02:38:35.414Z,3.66
2017-12-21T02:39:40.271Z,3.58
2017-12-21T02:40:44.803Z,3.57
2017-12-21T02:41:50.389Z,3.55
2017-12-21T02:42:55.027Z,3.57
2017-12-21T02:43:59.607Z,3.55
2017-12-21T02:45:04.203Z,3.62
2017-12-21T02:46:10.434Z,3.59
2017-12-21T02:47:15.364Z,3.64
2017-12-21T02:48:20.056Z,3.68
2017-12-21T02:49:24.641Z,3.66
2017-12-21T02:50:29.277Z,3.68
2017-12-21T02:51:33.825Z,3.75
2017-12-21T02:52:38.788Z,3.82
2017-12-21T02:53:43.394Z,3.86
2017-12-21T02:54:47.981Z,3.87
2017-12-21T02:55:52.598Z,3.96
2017-12-21T02:56:57.283Z,3.98
2017-12-21T02:58:02.293Z,3.99
2017-12-21T02:59:07.533Z,3.95
2017-12-21T03:00:12.113Z,3.93
2017-12-21T03:01:16.694Z,3.87
2017-12-21T03:02:21.353Z,3.86
2017-12-21T03:03:25.935Z,3.87
2017-12-21T03:04:30.536Z,3.86
2017-12-21T03:05:35.457Z,3.87
2017-12-21T03:06:40.865Z,3.86
2017-12-21T03:07:45.414Z,3.91
2017-12-21T03:08:50.001Z,3.92
2017-12-21T03:09:54.628Z,3.95
2017-12-21T03:10:59.261Z,4.00
2017-12-21T03:12:04.095Z,3.99
2017-12-21T03:13:08.641Z,3.95
2017-12-21T03:14:13.226Z,3.92
2017-12-21T03:15:17.805Z,3.85
2017-12-21T03:16:23.339Z,3.81
2017-12-21T03:17:28.196Z,3.82
2017-12-21T03:18:33.550Z,3.79
2017-12-21T03:19:38.107Z,3.79
2017-12-21T03:20:42.533Z,3.82
2017-12-21T03:21:46.999Z,3.86
2017-12-21T03:22:51.581Z,3.84
2017-12-21T03:23:56.153Z,3.80
2017-12-21T03:25:01.081Z,3.80
2017-12-21T03:26:06.028Z,3.82
2017-12-21T03:27:10.610Z,3.79
2017-12-21T03:28:15.342Z,3.81
2017-12-21T03:29:19.810Z,3.80
2017-12-21T03:30:24.333Z,3.79
2017-12-21T03:31:29.199Z,3.76
2017-12-21T03:32:33.641Z,3.71
2017-12-21T03:33:38.232Z,3.74
2017-12-21T03:34:42.824Z,3.71
2017-12-21T03:35:47.424Z,3.63
2017-12-21T03:36:52.045Z,3.63
2017-12-21T03:37:57.227Z,3.65
2017-12-21T03:39:01.882Z,3.61
2017-12-21T03:40:06.344Z,3.57
2017-12-21T03:41:10.768Z,3.60
2017-12-21T03:42:15.259Z,3.64
2017-12-21T03:43:19.867Z,3.72
2017-12-21T03:44:24.921Z,3.72
2017-12-21T03:45:29.732Z,3.66
2017-12-21T03:46:34.355Z,3.63
2017-12-21T03:47:38.959Z,3.64
2017-12-21T03:48:43.568Z,3.63
2017-12-21T03:49:48.157Z,3.66
2017-12-21T03:50:53.273Z,3.68
2017-12-21T03:51:57.872Z,3.73
2017-12-21T03:53:02.474Z,3.79
2017-12-21T03:54:07.030Z,3.74
2017-12-21T03:55:11.570Z,3.71
2017-12-21T03:56:16.215Z,3.74
2017-12-21T03:57:21.380Z,3.76
2017-12-21T03:58:25.969Z,3.75
2017-12-21T03:59:30.719Z,3.74
2017-12-21T04:00:35.335Z,3.76
2017-12-21T04:01:40.050Z,3.78
2017-12-21T04:02:44.671Z,3.79
2017-12-21T04:03:49.654Z,3.84
2017-12-21T04:04:54.297Z,3.89
2017-12-21T04:05:58.909Z,3.91
2017-12-21T04:07:04.308Z,3.88
2017-12-21T04:08:08.921Z,3.79
2017-12-21T04:09:13.449Z,3.73
2017-12-21T04:10:18.481Z,3.70
2017-12-21T04:11:23.034Z,3.73
2017-12-21T04:12:27.653Z,3.73
2017-12-21T04:13:32.397Z,3.70
2017-12-21T04:14:38.541Z,3.62
2017-12-21T04:15:43.142Z,3.62
2017-12-21T04:16:48.024Z,3.65
2017-12-21T04:17:52.623Z,3.60
2017-12-21T04:18:57.330Z,3.65
2017-12-21T04:20:01.978Z,3.60
2017-12-21T04:21:07.006Z,3.67
2017-12-21T04:22:11.633Z,3.69
2017-12-21T04:23:16.635Z,3.74
2017-12-21T04:24:21.279Z,3.76
2017-12-21T04:25:26.295Z,3.76
2017-12-21T04:26:30.946Z,3.76
2017-12-21T04:27:36.549Z,3.80
2017-12-21T04:28:41.207Z,3.86
2017-12-21T04:29:46.319Z,3.91
2017-12-21T04:30:51.151Z,3.85
2017-12-21T04:31:55.809Z,3.81
2017-12-21T04:33:00.473Z,3.84
2017-12-21T04:34:05.108Z,3.84
2017-12-21T04:35:09.736Z,3.85
